Flight Track Log - Related Links

Times and Time Zones

All times are in EDT time to prevent confusion due to time zone crossing. See the DAL695 flight status page for this flight to view local times or setup timezone preferences in your user account.

Time Position Orientation Groundspeed Altitude Reporting Facility
EDT Latitude Longitude Course Direction KTS MPH feet Rate Location/Type
Tue 02:49:18 PM 28.4000 -81.3000 90° East 159 183 900  Level Orlando TRACON
Tue 02:50:24 PM 28.3500 -81.2667 150° Southeast 229 264 2,800 2,143 Climbing Orlando TRACON
Tue 02:51:24 PM 28.3500 -81.1833 90° East 261 300 5,400 2,639 Climbing Orlando TRACON
Tue 02:52:00 PM 28.2031 -80.8493 114° Southeast  Level FlightAware Approximate
Tue 02:53:00 PM 28.1557 -80.7310 114° Southeast  Level FlightAware Approximate
Tue 02:53:10 PM 28.3547 -81.0369 88° East 307 353 10,100  Level Miami Center
Tue 02:54:00 PM 28.1000 -80.6314 90° East  Level FlightAware Approximate
Tue 02:54:10 PM 28.3658 -80.9381 83° East 307 353 11,600  Level Miami Center
Tue 02:55:10 PM 28.3750 -80.8300 84° East 337 388 14,500 2,400 Climbing Miami Center
Tue 02:56:10 PM 28.3842 -80.7311 84° East 342 394 16,400 1,950 Climbing Miami Center
Tue 02:57:10 PM 28.3956 -80.6183 83° East 354 407 18,400 1,900 Climbing Miami Center
Tue 02:58:10 PM 28.4089 -80.5056 82° East 354 407 20,200 1,250 Climbing Miami Center
Tue 02:59:10 PM 28.4228 -80.3644 84° East 389 448 20,900 850 Climbing Miami Center
Tue 03:00:10 PM 28.4383 -80.2303 82° East 420 483 21,900 900 Climbing Miami Center
Tue 03:01:10 PM 28.4542 -80.0914 83° East 440 506 22,700 1,300 Climbing Miami Center
Tue 03:02:10 PM 28.5150 -79.9822 58° Northeast 445 512 24,500 1,850 Climbing Miami Center
Tue 03:03:10 PM 28.5883 -79.8683 54° Northeast 445 512 26,400 1,650 Climbing Miami Center
Tue 03:04:10 PM 28.6617 -79.7569 53° Northeast 439 505 27,800 1,200 Climbing Miami Center
Tue 03:05:10 PM 28.7328 -79.6475 53° Northeast 439 505 28,800 1,000 Climbing Miami Center
Tue 03:06:10 PM 28.8039 -79.5308 55° Northeast 439 505 29,800 850 Climbing Miami Center
Tue 03:07:10 PM 28.8808 -79.4189 52° Northeast 444 511 30,500 700 Climbing Miami Center
Tue 03:08:10 PM 28.9967 -79.3669 21° North 427 491 31,200 700 Climbing Miami Center
Tue 03:09:10 PM 29.1181 -79.3389 11° North 427 491 31,900 700 Climbing Miami Center
Tue 03:10:10 PM 29.2417 -79.3036 14° North 437 503 32,600 800 Climbing Miami Center
Tue 03:11:10 PM 29.3717 -79.2778 10° North 445 512 33,500 900 Climbing Miami Center
Tue 03:12:10 PM 29.4931 -79.2447 13° North 452 520 34,400 950 Climbing Miami Center
Tue 03:13:10 PM 29.6167 -79.2094 14° North 452 520 35,400 900 Climbing Miami Center
Tue 03:14:10 PM 29.7361 -79.1761 14° North 447 514 36,200 650 Climbing Miami Center
Tue 03:15:10 PM 29.8594 -79.1500 10° North 447 514 36,700 286 Climbing Miami Center
Tue 03:16:58 PM 30.0781 -79.0858 14° North 455 524 37,000 71 Climbing Jacksonville Center
Tue 03:17:58 PM 30.2089 -79.0567 11° North 461 531 36,900  Descending Jacksonville Center
Tue 03:18:58 PM 30.3411 -79.0178 14° North 460 529 37,000 50 Climbing Jacksonville Center
Tue 03:19:58 PM 30.4717 -78.9786 14° North 471 542 37,000  Level Jacksonville Center
Tue 03:20:58 PM 30.5956 -78.9350 17° North 460 529 37,000  Level Jacksonville Center
Tue 03:21:58 PM 30.7192 -78.8886 18° North 467 537 37,000  Level Jacksonville Center
Tue 03:22:58 PM 30.8450 -78.8422 18° North 467 537 37,000  Level Jacksonville Center
Tue 03:23:58 PM 30.9753 -78.7981 16° North 467 537 37,000 -50 Level Jacksonville Center
Tue 03:24:58 PM 31.0989 -78.7539 17° North 467 537 36,900  Descending Jacksonville Center
Tue 03:25:58 PM 31.2269 -78.7092 17° North 474 545 37,000 50 Climbing Jacksonville Center
Tue 03:26:58 PM 31.3528 -78.6622 18° North 469 540 37,000 -50 Level Jacksonville Center
Tue 03:27:58 PM 31.4764 -78.6178 17° North 469 540 36,900 -50 Descending Jacksonville Center
Tue 03:28:58 PM 31.6044 -78.5728 17° North 469 540 36,900  Level Jacksonville Center
Tue 03:29:58 PM 31.7261 -78.5281 17° North 469 540 36,900 50 Level Jacksonville Center
Tue 03:30:58 PM 31.8517 -78.4806 18° North 469 540 37,000 50 Climbing Jacksonville Center
Tue 03:31:58 PM 31.9794 -78.4353 17° North 475 547 37,000  Level Jacksonville Center
Tue 03:32:58 PM 32.1031 -78.3875 18° North 469 540 37,000  Level Jacksonville Center
Tue 03:33:58 PM 32.2308 -78.3419 17° North 469 540 37,000 -50 Level Jacksonville Center
Tue 03:34:58 PM 32.3564 -78.2914 19° North 475 547 36,900 -50 Descending Jacksonville Center
Tue 03:35:58 PM 32.4839 -78.2406 19° North 475 547 36,900  Level Jacksonville Center
Tue 03:36:58 PM 32.6094 -78.1922 18° North 475 547 36,900 50 Level Jacksonville Center
Tue 03:37:58 PM 32.7353 -78.1489 16° North 475 547 37,000  Climbing Jacksonville Center
Tue 03:38:58 PM 32.8608 -78.1025 17° North 470 541 36,900 -50 Descending Jacksonville Center
Tue 03:39:58 PM 32.9861 -78.0539 18° North 470 541 36,900 33 Level Jacksonville Center
Tue 03:42:02 PM 33.2325 -77.9622 17° North 480 552 37,000  Climbing Washington Center
Tue 03:43:03 PM 33.3586 -77.9161 17° North 480 552 36,900  Descending Washington Center
Tue 03:44:00 PM 33.4847 -77.8697 17° North 480 552 37,000 51 Climbing Washington Center
Tue 03:45:01 PM 33.6108 -77.8208 18° North 475 547 37,000 -49 Level Washington Center
Tue 03:46:02 PM 33.7328 -77.7717 19° North 469 540 36,900 -50 Descending Washington Center
Tue 03:47:02 PM 33.8586 -77.7225 18° North 469 540 36,900  Level Washington Center
Tue 03:48:00 PM 33.9867 -77.6758 17° North 469 540 36,900 50 Level Washington Center
Tue 03:49:01 PM 34.1169 -77.6264 17° North 475 547 37,000 50 Climbing Washington Center
Tue 03:50:01 PM 34.2408 -77.5792 17° North 475 547 37,000  Level Washington Center
Tue 03:51:02 PM 34.3711 -77.5319 17° North 475 547 37,000  Level Washington Center
Tue 03:52:02 PM 34.4969 -77.4819 18° North 475 547 37,000  Level Washington Center
Tue 03:53:00 PM 34.6231 -77.4269 20° North 480 552 37,000  Level Washington Center
Tue 03:54:01 PM 34.7472 -77.3589 24° Northeast 480 552 37,000  Level Washington Center
Tue 03:55:02 PM 34.8714 -77.2881 25° Northeast 480 552 37,000  Level Washington Center
Tue 03:56:00 PM 34.9911 -77.2222 24° Northeast 480 552 37,000  Level Washington Center
Tue 03:57:00 PM 35.1108 -77.1536 25° Northeast 480 552 37,000  Level Washington Center
Tue 03:58:02 PM 35.2369 -77.0872 23° Northeast 480 552 37,000  Level Washington Center
Tue 03:59:03 PM 35.3547 -77.0208 25° Northeast 475 547 37,000  Level Washington Center
Tue 04:00:00 PM 35.4764 -76.9542 24° Northeast 475 547 37,000  Level Washington Center
Tue 04:01:01 PM 35.5939 -76.8897 24° Northeast 470 541 37,000 -49 Level Washington Center
Tue 04:02:02 PM 35.7242 -76.8150 25° Northeast 459 528 36,900  Descending Washington Center
Tue 04:03:00 PM 35.8417 -76.7503 24° Northeast 459 528 37,000  Climbing Washington Center
Tue 04:04:01 PM 35.9611 -76.6828 25° Northeast 459 528 36,900  Descending Washington Center
Tue 04:05:01 PM 36.0786 -76.6175 24° Northeast 459 528 37,000  Climbing Washington Center
Tue 04:06:00 PM 36.1981 -76.5519 24° Northeast 459 528 36,900  Descending Washington Center
Tue 04:07:00 PM 36.3133 -76.4942 22° Northeast 459 528 37,000 49 Climbing Washington Center
Tue 04:08:02 PM 36.4383 -76.5033 357° North 438 504 37,000 -49 Level Washington Center
Tue 04:09:02 PM 36.5614 -76.5256 352° North 438 504 36,900  Descending Washington Center
Tue 04:10:00 PM 36.6844 -76.5347 357° North 443 510 37,000 50 Climbing Washington Center
Tue 04:11:01 PM 36.7933 -76.4608 29° Northeast 426 490 37,000  Level Washington Center
Tue 04:12:01 PM 36.8878 -76.3814 34° Northeast 433 498 37,000  Level Washington Center
Tue 04:13:02 PM 36.9928 -76.2992 32° Northeast 441 507 37,000  Level Washington Center
Tue 04:14:02 PM 37.0994 -76.2142 32° Northeast 447 514 37,000 -51 Level Washington Center
Tue 04:15:00 PM 37.2000 -76.1447 29° Northeast 447 514 36,900  Descending Washington Center
Tue 04:16:01 PM 37.3172 -76.0542 32° Northeast 447 514 37,000  Climbing Washington Center
Tue 04:17:01 PM 37.4239 -75.9711 32° Northeast 447 514 36,900  Descending Washington Center
Tue 04:18:02 PM 37.5306 -75.8878 32° Northeast 447 514 37,000 50 Climbing Washington Center
Tue 04:19:02 PM 37.6392 -75.8069 31° Northeast 452 520 37,000  Level Washington Center
Tue 04:20:00 PM 37.7456 -75.7153 34° Northeast 452 520 37,000 -50 Level Washington Center
Tue 04:21:01 PM 37.8500 -75.6364 31° Northeast 452 520 36,900 -50 Descending Washington Center
Tue 04:22:01 PM 37.9583 -75.5469 33° Northeast 452 520 36,900 50 Level Washington Center
Tue 04:23:02 PM 38.0667 -75.4653 31° Northeast 452 520 37,000 50 Climbing Washington Center
Tue 04:24:02 PM 38.1772 -75.3883 29° Northeast 447 514 37,000 -50 Level Washington Center
Tue 04:25:02 PM 38.2894 -75.3219 25° Northeast 442 509 36,900 -51 Descending Washington Center
Tue 04:26:00 PM 38.4144 -75.2392 27° Northeast 442 509 36,900  Level Washington Center
Tue 04:27:00 PM 38.5269 -75.1725 25° Northeast 442 509 36,900 50 Level Washington Center
Tue 04:28:01 PM 38.6369 -75.0972 28° Northeast 442 509 37,000 49 Climbing Washington Center
Tue 04:29:02 PM 38.7492 -75.0272 26° Northeast 442 509 37,000 -50 Level Washington Center
Tue 04:30:02 PM 38.8572 -74.9492 29° Northeast 442 509 36,900 -356 Descending Washington Center
Tue 04:31:00 PM 38.9694 -74.8867 23° Northeast 442 509 36,300 -1,932 Descending Washington Center
Tue 04:32:00 PM 39.0794 -74.8081 29° Northeast 442 509 33,100 -3,471 Descending Washington Center
Tue 04:33:01 PM 39.1808 -74.7106 37° Northeast 442 509 29,300 -3,246 Descending Washington Center
Tue 04:34:02 PM 39.2781 -74.6050 40° Northeast 453 521 26,500 -2,558 Descending Washington Center
Tue 04:36:18 PM 39.4764 -74.3911 40° Northeast 439 505 20,900 -2,536 Descending New York Center
Tue 04:37:16 PM 39.5714 -74.2853 41° Northeast 411 473 18,300 -1,525 Descending New York Center
Tue 04:38:16 PM 39.6597 -74.1928 39° Northeast 405 466 17,900 -694 Descending New York Center
Tue 04:39:17 PM 39.7308 -74.1072 43° Northeast 394 453 16,900 -1,426 Descending New York Center
Tue 04:40:18 PM 39.8103 -74.0217 40° Northeast 380 437 15,000 -2,017 Descending New York Center
Tue 04:41:16 PM 39.9019 -73.9503 31° Northeast 351 404 12,900 -1,932 Descending New York Center
Tue 04:42:16 PM 39.9808 -73.8861 32° Northeast 336 387 11,200 -942 Descending New York Center
Tue 04:43:17 PM 40.0531 -73.8297 31° Northeast 323 372 11,000 -694 Descending New York Center
Tue 04:44:17 PM 40.1214 -73.7703 34° Northeast 298 343 9,800 -1,347 Descending New York Center
Tue 04:44:55 PM 40.1667 -73.7500 19° North 278 320 8,800 -1,653 Descending New York TRACON
Tue 04:45:55 PM 40.2333 -73.7667 349° North 274 315 7,100 -1,650 Descending New York TRACON
Tue 04:46:55 PM 40.2833 -73.8000 333° Northwest 257 296 5,500 -1,850 Descending New York TRACON
Tue 04:47:55 PM 40.3500 -73.7333 37° Northeast 276 318 3,400 -1,750 Descending New York TRACON
Tue 04:48:55 PM 40.3833 -73.6500 62° Northeast 268 308 2,000 -700 Descending New York TRACON
Tue 04:49:55 PM 40.4500 -73.6167 21° North 259 298 2,000  Level New York TRACON
Tue 04:50:55 PM 40.5000 -73.6333 346° North 196 226 2,000  Level New York TRACON

Login

Don't have an account? Register now (free) for customized features, flight alerts, and more!